sensor_id;sensor_type;location;lat;lon;timestamp;P1;durP1;ratioP1;P2;durP2;ratioP2
24585;SDS011;12743;52.262;6.172;2023-05-25T00:00:57;6.57;;;1.65;;
24585;SDS011;12743;52.262;6.172;2023-05-25T00:03:28;7.45;;;2.25;;
24585;SDS011;12743;52.262;6.172;2023-05-25T00:05:58;8.17;;;2.47;;
24585;SDS011;12743;52.262;6.172;2023-05-25T00:08:28;7.40;;;2.13;;
24585;SDS011;12743;52.262;6.172;2023-05-25T00:10:55;9.77;;;2.47;;
24585;SDS011;12743;52.262;6.172;2023-05-25T00:17:35;7.95;;;2.00;;
24585;SDS011;12743;52.262;6.172;2023-05-25T00:20:03;8.93;;;2.40;;
24585;SDS011;12743;52.262;6.172;2023-05-25T00:22:33;8.52;;;2.10;;
24585;SDS011;12743;52.262;6.172;2023-05-25T00:25:01;7.55;;;2.08;;
24585;SDS011;12743;52.262;6.172;2023-05-25T00:27:28;9.02;;;2.13;;
24585;SDS011;12743;52.262;6.172;2023-05-25T00:29:55;8.05;;;2.15;;
24585;SDS011;12743;52.262;6.172;2023-05-25T00:32:22;9.13;;;2.47;;
24585;SDS011;12743;52.262;6.172;2023-05-25T00:34:49;7.75;;;2.13;;
24585;SDS011;12743;52.262;6.172;2023-05-25T00:37:16;8.35;;;1.95;;
24585;SDS011;12743;52.262;6.172;2023-05-25T00:39:43;8.55;;;2.15;;
24585;SDS011;12743;52.262;6.172;2023-05-25T00:42:09;7.68;;;2.00;;
24585;SDS011;12743;52.262;6.172;2023-05-25T00:44:37;7.83;;;2.20;;
24585;SDS011;12743;52.262;6.172;2023-05-25T00:47:03;6.72;;;2.30;;
24585;SDS011;12743;52.262;6.172;2023-05-25T00:49:32;7.43;;;1.95;;
24585;SDS011;12743;52.262;6.172;2023-05-25T00:52:01;7.95;;;2.20;;
24585;SDS011;12743;52.262;6.172;2023-05-25T00:54:28;8.30;;;2.28;;
24585;SDS011;12743;52.262;6.172;2023-05-25T00:56:55;9.53;;;2.30;;
24585;SDS011;12743;52.262;6.172;2023-05-25T00:59:34;6.53;;;1.58;;
24585;SDS011;12743;52.262;6.172;2023-05-25T01:02:10;10.20;;;2.55;;
24585;SDS011;12743;52.262;6.172;2023-05-25T01:04:42;6.47;;;2.13;;
24585;SDS011;12743;52.262;6.172;2023-05-25T01:07:21;9.15;;;2.42;;
24585;SDS011;12743;52.262;6.172;2023-05-25T01:09:53;6.53;;;2.03;;
24585;SDS011;12743;52.262;6.172;2023-05-25T01:12:25;9.13;;;2.60;;
24585;SDS011;12743;52.262;6.172;2023-05-25T01:14:54;7.13;;;2.38;;
24585;SDS011;12743;52.262;6.172;2023-05-25T01:17:23;9.52;;;2.90;;
24585;SDS011;12743;52.262;6.172;2023-05-25T01:19:51;6.28;;;2.13;;
24585;SDS011;12743;52.262;6.172;2023-05-25T01:22:36;9.43;;;2.97;;
24585;SDS011;12743;52.262;6.172;2023-05-25T01:25:18;8.30;;;2.67;;
24585;SDS011;12743;52.262;6.172;2023-05-25T01:27:49;8.25;;;2.30;;
24585;SDS011;12743;52.262;6.172;2023-05-25T01:30:18;10.10;;;2.50;;
24585;SDS011;12743;52.262;6.172;2023-05-25T01:32:50;8.52;;;2.70;;
24585;SDS011;12743;52.262;6.172;2023-05-25T01:35:19;8.07;;;2.37;;
24585;SDS011;12743;52.262;6.172;2023-05-25T01:37:47;11.00;;;2.60;;
24585;SDS011;12743;52.262;6.172;2023-05-25T01:40:15;9.43;;;2.53;;
24585;SDS011;12743;52.262;6.172;2023-05-25T01:42:41;10.65;;;2.50;;
24585;SDS011;12743;52.262;6.172;2023-05-25T01:45:08;9.23;;;2.60;;
24585;SDS011;12743;52.262;6.172;2023-05-25T01:53:09;10.40;;;2.50;;
24585;SDS011;12743;52.262;6.172;2023-05-25T01:55:42;7.63;;;2.38;;
24585;SDS011;12743;52.262;6.172;2023-05-25T01:58:13;11.35;;;3.20;;
24585;SDS011;12743;52.262;6.172;2023-05-25T02:00:40;9.10;;;2.50;;
24585;SDS011;12743;52.262;6.172;2023-05-25T02:03:08;8.77;;;2.42;;
24585;SDS011;12743;52.262;6.172;2023-05-25T02:05:35;10.68;;;2.60;;
24585;SDS011;12743;52.262;6.172;2023-05-25T02:08:05;8.70;;;3.05;;
24585;SDS011;12743;52.262;6.172;2023-05-25T02:10:31;7.18;;;2.70;;
24585;SDS011;12743;52.262;6.172;2023-05-25T02:12:58;9.33;;;2.77;;
24585;SDS011;12743;52.262;6.172;2023-05-25T02:15:26;9.73;;;3.05;;
24585;SDS011;12743;52.262;6.172;2023-05-25T02:17:57;9.13;;;2.70;;
24585;SDS011;12743;52.262;6.172;2023-05-25T02:20:29;9.57;;;2.35;;
24585;SDS011;12743;52.262;6.172;2023-05-25T02:22:56;9.38;;;2.42;;
24585;SDS011;12743;52.262;6.172;2023-05-25T02:25:22;8.97;;;2.70;;
24585;SDS011;12743;52.262;6.172;2023-05-25T02:27:49;9.38;;;2.83;;
24585;SDS011;12743;52.262;6.172;2023-05-25T02:30:16;9.00;;;2.78;;
24585;SDS011;12743;52.262;6.172;2023-05-25T02:32:42;10.60;;;3.08;;
24585;SDS011;12743;52.262;6.172;2023-05-25T02:35:09;7.75;;;2.50;;
24585;SDS011;12743;52.262;6.172;2023-05-25T02:37:36;10.23;;;3.10;;
24585;SDS011;12743;52.262;6.172;2023-05-25T02:40:04;8.27;;;3.10;;
24585;SDS011;12743;52.262;6.172;2023-05-25T02:42:31;9.27;;;2.70;;
24585;SDS011;12743;52.262;6.172;2023-05-25T02:44:57;9.45;;;3.00;;
24585;SDS011;12743;52.262;6.172;2023-05-25T02:47:24;10.73;;;2.97;;
24585;SDS011;12743;52.262;6.172;2023-05-25T02:49:51;7.43;;;3.30;;
24585;SDS011;12743;52.262;6.172;2023-05-25T02:52:18;10.65;;;3.22;;
24585;SDS011;12743;52.262;6.172;2023-05-25T02:54:44;11.52;;;3.30;;
24585;SDS011;12743;52.262;6.172;2023-05-25T02:57:18;10.57;;;3.25;;
24585;SDS011;12743;52.262;6.172;2023-05-25T02:59:45;11.15;;;3.13;;
24585;SDS011;12743;52.262;6.172;2023-05-25T03:02:12;12.23;;;3.40;;
24585;SDS011;12743;52.262;6.172;2023-05-25T03:04:38;11.82;;;3.90;;
24585;SDS011;12743;52.262;6.172;2023-05-25T03:07:07;11.07;;;3.10;;
24585;SDS011;12743;52.262;6.172;2023-05-25T03:09:34;9.65;;;3.42;;
24585;SDS011;12743;52.262;6.172;2023-05-25T03:12:02;12.68;;;3.08;;
24585;SDS011;12743;52.262;6.172;2023-05-25T03:14:28;8.07;;;2.87;;
24585;SDS011;12743;52.262;6.172;2023-05-25T03:17:02;8.45;;;3.08;;
24585;SDS011;12743;52.262;6.172;2023-05-25T03:19:28;10.27;;;2.75;;
24585;SDS011;12743;52.262;6.172;2023-05-25T03:21:55;7.30;;;2.75;;
24585;SDS011;12743;52.262;6.172;2023-05-25T03:24:22;10.38;;;3.08;;
24585;SDS011;12743;52.262;6.172;2023-05-25T03:26:48;11.77;;;3.27;;
24585;SDS011;12743;52.262;6.172;2023-05-25T03:29:16;7.43;;;3.10;;
24585;SDS011;12743;52.262;6.172;2023-05-25T03:31:43;11.27;;;3.17;;
24585;SDS011;12743;52.262;6.172;2023-05-25T03:34:10;13.48;;;3.58;;
24585;SDS011;12743;52.262;6.172;2023-05-25T03:36:37;11.18;;;3.22;;
24585;SDS011;12743;52.262;6.172;2023-05-25T03:39:04;9.97;;;3.70;;
24585;SDS011;12743;52.262;6.172;2023-05-25T03:41:31;12.90;;;3.65;;
24585;SDS011;12743;52.262;6.172;2023-05-25T03:43:58;9.23;;;3.38;;
24585;SDS011;12743;52.262;6.172;2023-05-25T03:46:25;10.07;;;3.58;;
24585;SDS011;12743;52.262;6.172;2023-05-25T03:48:54;8.65;;;3.38;;
24585;SDS011;12743;52.262;6.172;2023-05-25T03:51:21;10.93;;;3.53;;
24585;SDS011;12743;52.262;6.172;2023-05-25T03:53:48;10.75;;;3.53;;
24585;SDS011;12743;52.262;6.172;2023-05-25T03:56:14;10.35;;;3.13;;
24585;SDS011;12743;52.262;6.172;2023-05-25T03:58:41;11.77;;;3.58;;
24585;SDS011;12743;52.262;6.172;2023-05-25T04:01:07;13.32;;;3.47;;
24585;SDS011;12743;52.262;6.172;2023-05-25T04:03:35;11.73;;;3.73;;
24585;SDS011;12743;52.262;6.172;2023-05-25T04:06:02;10.77;;;3.78;;
24585;SDS011;12743;52.262;6.172;2023-05-25T04:08:29;11.02;;;3.20;;
24585;SDS011;12743;52.262;6.172;2023-05-25T04:10:56;11.60;;;3.78;;
24585;SDS011;12743;52.262;6.172;2023-05-25T04:13:23;12.07;;;3.92;;
24585;SDS011;12743;52.262;6.172;2023-05-25T04:15:49;11.20;;;3.53;;
24585;SDS011;12743;52.262;6.172;2023-05-25T04:18:20;11.98;;;3.30;;
24585;SDS011;12743;52.262;6.172;2023-05-25T04:20:47;9.70;;;3.97;;
24585;SDS011;12743;52.262;6.172;2023-05-25T04:23:15;10.98;;;3.67;;
24585;SDS011;12743;52.262;6.172;2023-05-25T04:25:44;9.02;;;3.50;;
24585;SDS011;12743;52.262;6.172;2023-05-25T04:28:13;13.13;;;4.40;;
24585;SDS011;12743;52.262;6.172;2023-05-25T04:30:51;11.45;;;3.60;;
24585;SDS011;12743;52.262;6.172;2023-05-25T04:33:34;11.60;;;3.60;;
24585;SDS011;12743;52.262;6.172;2023-05-25T04:36:16;12.93;;;3.85;;
24585;SDS011;12743;52.262;6.172;2023-05-25T04:38:43;10.32;;;3.42;;
24585;SDS011;12743;52.262;6.172;2023-05-25T04:41:13;15.97;;;4.10;;
24585;SDS011;12743;52.262;6.172;2023-05-25T04:43:44;11.65;;;3.88;;
24585;SDS011;12743;52.262;6.172;2023-05-25T04:46:29;12.45;;;4.63;;
24585;SDS011;12743;52.262;6.172;2023-05-25T04:48:57;9.52;;;3.35;;
24585;SDS011;12743;52.262;6.172;2023-05-25T04:51:24;12.05;;;3.97;;
24585;SDS011;12743;52.262;6.172;2023-05-25T04:53:51;12.57;;;3.70;;
24585;SDS011;12743;52.262;6.172;2023-05-25T04:56:18;10.63;;;3.85;;
24585;SDS011;12743;52.262;6.172;2023-05-25T04:58:44;11.63;;;4.22;;
24585;SDS011;12743;52.262;6.172;2023-05-25T05:01:11;12.98;;;3.80;;
24585;SDS011;12743;52.262;6.172;2023-05-25T05:03:38;13.15;;;3.83;;
24585;SDS011;12743;52.262;6.172;2023-05-25T05:06:05;9.83;;;3.70;;
24585;SDS011;12743;52.262;6.172;2023-05-25T05:08:33;16.30;;;4.15;;
24585;SDS011;12743;52.262;6.172;2023-05-25T05:10:59;13.50;;;4.35;;
24585;SDS011;12743;52.262;6.172;2023-05-25T05:13:28;13.45;;;4.60;;
24585;SDS011;12743;52.262;6.172;2023-05-25T05:15:55;13.52;;;4.20;;
24585;SDS011;12743;52.262;6.172;2023-05-25T05:18:22;12.00;;;4.17;;
24585;SDS011;12743;52.262;6.172;2023-05-25T05:20:49;12.30;;;3.63;;
24585;SDS011;12743;52.262;6.172;2023-05-25T05:23:17;12.77;;;3.53;;
24585;SDS011;12743;52.262;6.172;2023-05-25T05:25:43;11.63;;;3.95;;
24585;SDS011;12743;52.262;6.172;2023-05-25T05:28:13;13.07;;;4.85;;
24585;SDS011;12743;52.262;6.172;2023-05-25T05:30:39;21.03;;;4.53;;
24585;SDS011;12743;52.262;6.172;2023-05-25T05:33:06;12.48;;;3.60;;
24585;SDS011;12743;52.262;6.172;2023-05-25T05:35:42;14.50;;;4.10;;
24585;SDS011;12743;52.262;6.172;2023-05-25T05:38:13;17.25;;;4.38;;
24585;SDS011;12743;52.262;6.172;2023-05-25T05:40:41;18.52;;;3.90;;
24585;SDS011;12743;52.262;6.172;2023-05-25T05:43:09;12.67;;;4.27;;
24585;SDS011;12743;52.262;6.172;2023-05-25T05:45:37;15.90;;;4.15;;
24585;SDS011;12743;52.262;6.172;2023-05-25T05:48:04;19.13;;;4.32;;
24585;SDS011;12743;52.262;6.172;2023-05-25T05:50:35;13.55;;;4.28;;
24585;SDS011;12743;52.262;6.172;2023-05-25T05:53:07;15.55;;;4.03;;
24585;SDS011;12743;52.262;6.172;2023-05-25T05:55:35;10.40;;;3.53;;
24585;SDS011;12743;52.262;6.172;2023-05-25T05:58:02;13.82;;;4.95;;
24585;SDS011;12743;52.262;6.172;2023-05-25T06:00:29;15.02;;;4.15;;
24585;SDS011;12743;52.262;6.172;2023-05-25T06:02:55;11.75;;;4.07;;
24585;SDS011;12743;52.262;6.172;2023-05-25T06:05:25;13.02;;;4.35;;
24585;SDS011;12743;52.262;6.172;2023-05-25T06:07:53;13.87;;;4.57;;
24585;SDS011;12743;52.262;6.172;2023-05-25T06:10:20;12.98;;;4.20;;
24585;SDS011;12743;52.262;6.172;2023-05-25T06:12:47;15.68;;;5.20;;
24585;SDS011;12743;52.262;6.172;2023-05-25T06:15:14;15.13;;;4.85;;
24585;SDS011;12743;52.262;6.172;2023-05-25T06:17:43;16.67;;;4.78;;
24585;SDS011;12743;52.262;6.172;2023-05-25T06:20:10;15.10;;;5.43;;
24585;SDS011;12743;52.262;6.172;2023-05-25T06:22:37;11.85;;;5.30;;
24585;SDS011;12743;52.262;6.172;2023-05-25T06:25:03;15.40;;;4.78;;
24585;SDS011;12743;52.262;6.172;2023-05-25T06:27:31;20.40;;;5.63;;
24585;SDS011;12743;52.262;6.172;2023-05-25T06:29:59;27.83;;;5.55;;
24585;SDS011;12743;52.262;6.172;2023-05-25T06:32:26;16.10;;;6.10;;
24585;SDS011;12743;52.262;6.172;2023-05-25T06:34:53;17.77;;;6.57;;
24585;SDS011;12743;52.262;6.172;2023-05-25T06:37:21;30.15;;;5.93;;
24585;SDS011;12743;52.262;6.172;2023-05-25T06:39:47;23.63;;;5.28;;
24585;SDS011;12743;52.262;6.172;2023-05-25T06:42:14;21.52;;;6.15;;
24585;SDS011;12743;52.262;6.172;2023-05-25T06:44:50;27.33;;;6.03;;
24585;SDS011;12743;52.262;6.172;2023-05-25T06:47:17;27.15;;;6.65;;
24585;SDS011;12743;52.262;6.172;2023-05-25T06:49:43;20.75;;;5.85;;
24585;SDS011;12743;52.262;6.172;2023-05-25T06:52:10;18.42;;;5.80;;
24585;SDS011;12743;52.262;6.172;2023-05-25T06:54:37;20.20;;;6.43;;
24585;SDS011;12743;52.262;6.172;2023-05-25T06:57:03;21.20;;;5.83;;
24585;SDS011;12743;52.262;6.172;2023-05-25T06:59:30;18.95;;;6.18;;
24585;SDS011;12743;52.262;6.172;2023-05-25T07:01:58;18.02;;;5.93;;
24585;SDS011;12743;52.262;6.172;2023-05-25T07:04:26;11.45;;;5.07;;
24585;SDS011;12743;52.262;6.172;2023-05-25T07:06:53;18.20;;;6.00;;
24585;SDS011;12743;52.262;6.172;2023-05-25T07:09:20;15.33;;;5.40;;
24585;SDS011;12743;52.262;6.172;2023-05-25T07:11:47;12.23;;;5.20;;
24585;SDS011;12743;52.262;6.172;2023-05-25T07:14:14;14.07;;;5.03;;
24585;SDS011;12743;52.262;6.172;2023-05-25T07:16:42;15.48;;;5.47;;
24585;SDS011;12743;52.262;6.172;2023-05-25T07:19:12;20.88;;;5.82;;
24585;SDS011;12743;52.262;6.172;2023-05-25T07:21:39;13.73;;;5.20;;
24585;SDS011;12743;52.262;6.172;2023-05-25T07:24:06;16.67;;;5.55;;
24585;SDS011;12743;52.262;6.172;2023-05-25T07:26:33;17.92;;;4.90;;
24585;SDS011;12743;52.262;6.172;2023-05-25T07:29:00;18.45;;;5.18;;
24585;SDS011;12743;52.262;6.172;2023-05-25T07:31:27;21.83;;;5.28;;
24585;SDS011;12743;52.262;6.172;2023-05-25T07:33:54;16.07;;;5.17;;
24585;SDS011;12743;52.262;6.172;2023-05-25T07:36:21;18.52;;;4.68;;
24585;SDS011;12743;52.262;6.172;2023-05-25T07:38:50;15.05;;;4.40;;
24585;SDS011;12743;52.262;6.172;2023-05-25T07:41:17;14.80;;;4.10;;
24585;SDS011;12743;52.262;6.172;2023-05-25T07:43:43;12.73;;;4.45;;
24585;SDS011;12743;52.262;6.172;2023-05-25T07:46:10;13.40;;;4.00;;
24585;SDS011;12743;52.262;6.172;2023-05-25T07:48:37;13.85;;;4.65;;
24585;SDS011;12743;52.262;6.172;2023-05-25T07:51:04;13.60;;;4.65;;
24585;SDS011;12743;52.262;6.172;2023-05-25T07:53:30;12.35;;;4.70;;
24585;SDS011;12743;52.262;6.172;2023-05-25T07:55:57;14.25;;;4.90;;
24585;SDS011;12743;52.262;6.172;2023-05-25T07:58:23;13.33;;;4.47;;
24585;SDS011;12743;52.262;6.172;2023-05-25T08:00:50;12.30;;;4.65;;
24585;SDS011;12743;52.262;6.172;2023-05-25T08:03:17;12.95;;;4.32;;
24585;SDS011;12743;52.262;6.172;2023-05-25T08:05:51;10.80;;;4.20;;
24585;SDS011;12743;52.262;6.172;2023-05-25T08:08:18;14.02;;;4.55;;
24585;SDS011;12743;52.262;6.172;2023-05-25T08:10:44;13.03;;;4.67;;
24585;SDS011;12743;52.262;6.172;2023-05-25T08:13:11;11.95;;;4.03;;
24585;SDS011;12743;52.262;6.172;2023-05-25T08:15:38;10.70;;;4.45;;
24585;SDS011;12743;52.262;6.172;2023-05-25T08:18:05;14.50;;;4.10;;
24585;SDS011;12743;52.262;6.172;2023-05-25T08:20:32;13.57;;;4.28;;
24585;SDS011;12743;52.262;6.172;2023-05-25T08:22:59;13.57;;;4.00;;
24585;SDS011;12743;52.262;6.172;2023-05-25T08:25:27;13.63;;;4.10;;
24585;SDS011;12743;52.262;6.172;2023-05-25T08:27:53;11.82;;;3.42;;
24585;SDS011;12743;52.262;6.172;2023-05-25T08:30:20;12.73;;;3.58;;
24585;SDS011;12743;52.262;6.172;2023-05-25T08:32:47;11.70;;;3.47;;
24585;SDS011;12743;52.262;6.172;2023-05-25T08:35:13;9.57;;;3.50;;
24585;SDS011;12743;52.262;6.172;2023-05-25T08:37:40;10.05;;;3.33;;
24585;SDS011;12743;52.262;6.172;2023-05-25T08:40:13;12.02;;;3.60;;
24585;SDS011;12743;52.262;6.172;2023-05-25T08:42:44;12.10;;;3.58;;
24585;SDS011;12743;52.262;6.172;2023-05-25T08:45:11;14.70;;;2.95;;
24585;SDS011;12743;52.262;6.172;2023-05-25T08:47:58;13.27;;;3.90;;
24585;SDS011;12743;52.262;6.172;2023-05-25T08:50:26;10.73;;;3.08;;
24585;SDS011;12743;52.262;6.172;2023-05-25T08:52:56;8.75;;;2.50;;
24585;SDS011;12743;52.262;6.172;2023-05-25T08:55:26;10.32;;;3.05;;
24585;SDS011;12743;52.262;6.172;2023-05-25T08:58:13;7.55;;;2.78;;
24585;SDS011;12743;52.262;6.172;2023-05-25T09:00:43;8.87;;;2.87;;
24585;SDS011;12743;52.262;6.172;2023-05-25T09:03:15;8.60;;;2.85;;
24585;SDS011;12743;52.262;6.172;2023-05-25T09:05:45;9.07;;;2.60;;
24585;SDS011;12743;52.262;6.172;2023-05-25T09:08:12;7.97;;;2.40;;
24585;SDS011;12743;52.262;6.172;2023-05-25T09:10:40;10.73;;;2.75;;
24585;SDS011;12743;52.262;6.172;2023-05-25T09:13:07;8.20;;;2.50;;
24585;SDS011;12743;52.262;6.172;2023-05-25T09:15:48;7.45;;;2.38;;
24585;SDS011;12743;52.262;6.172;2023-05-25T09:18:14;11.65;;;3.22;;
24585;SDS011;12743;52.262;6.172;2023-05-25T09:20:42;7.10;;;3.03;;
24585;SDS011;12743;52.262;6.172;2023-05-25T09:23:12;8.02;;;2.75;;
24585;SDS011;12743;52.262;6.172;2023-05-25T09:25:40;11.27;;;2.70;;
24585;SDS011;12743;52.262;6.172;2023-05-25T09:28:07;10.75;;;2.53;;
24585;SDS011;12743;52.262;6.172;2023-05-25T09:30:52;8.57;;;2.80;;
24585;SDS011;12743;52.262;6.172;2023-05-25T09:33:19;8.90;;;2.50;;
24585;SDS011;12743;52.262;6.172;2023-05-25T09:35:46;6.00;;;2.08;;
24585;SDS011;12743;52.262;6.172;2023-05-25T09:38:14;9.67;;;1.90;;
24585;SDS011;12743;52.262;6.172;2023-05-25T09:40:42;7.32;;;1.65;;
24585;SDS011;12743;52.262;6.172;2023-05-25T09:43:10;7.78;;;2.00;;
24585;SDS011;12743;52.262;6.172;2023-05-25T09:45:42;10.57;;;2.30;;
24585;SDS011;12743;52.262;6.172;2023-05-25T09:48:10;13.20;;;2.30;;
24585;SDS011;12743;52.262;6.172;2023-05-25T09:50:36;7.67;;;1.90;;
24585;SDS011;12743;52.262;6.172;2023-05-25T09:53:03;7.07;;;2.20;;
24585;SDS011;12743;52.262;6.172;2023-05-25T09:55:30;9.18;;;2.50;;
24585;SDS011;12743;52.262;6.172;2023-05-25T09:58:17;10.13;;;2.10;;
24585;SDS011;12743;52.262;6.172;2023-05-25T10:00:43;10.15;;;2.28;;
24585;SDS011;12743;52.262;6.172;2023-05-25T10:03:11;6.17;;;2.10;;
24585;SDS011;12743;52.262;6.172;2023-05-25T10:05:40;7.00;;;1.73;;
24585;SDS011;12743;52.262;6.172;2023-05-25T10:08:07;7.97;;;2.47;;
24585;SDS011;12743;52.262;6.172;2023-05-25T10:10:35;8.20;;;2.30;;
24585;SDS011;12743;52.262;6.172;2023-05-25T10:13:02;8.32;;;3.00;;
24585;SDS011;12743;52.262;6.172;2023-05-25T10:15:33;11.47;;;2.57;;
24585;SDS011;12743;52.262;6.172;2023-05-25T10:18:04;15.68;;;3.03;;
24585;SDS011;12743;52.262;6.172;2023-05-25T10:20:32;7.20;;;2.15;;
24585;SDS011;12743;52.262;6.172;2023-05-25T10:23:04;7.63;;;2.38;;
24585;SDS011;12743;52.262;6.172;2023-05-25T10:25:44;6.28;;;2.42;;
24585;SDS011;12743;52.262;6.172;2023-05-25T10:28:17;8.20;;;2.03;;
24585;SDS011;12743;52.262;6.172;2023-05-25T10:30:48;7.72;;;1.90;;
24585;SDS011;12743;52.262;6.172;2023-05-25T10:33:17;14.23;;;3.03;;
24585;SDS011;12743;52.262;6.172;2023-05-25T10:35:45;10.15;;;2.30;;
24585;SDS011;12743;52.262;6.172;2023-05-25T10:38:34;8.38;;;2.10;;
24585;SDS011;12743;52.262;6.172;2023-05-25T10:41:01;7.83;;;1.70;;
24585;SDS011;12743;52.262;6.172;2023-05-25T10:43:29;7.25;;;1.80;;
24585;SDS011;12743;52.262;6.172;2023-05-25T10:45:56;7.57;;;2.22;;
24585;SDS011;12743;52.262;6.172;2023-05-25T10:48:33;9.20;;;1.98;;
24585;SDS011;12743;52.262;6.172;2023-05-25T10:51:00;11.63;;;2.08;;
24585;SDS011;12743;52.262;6.172;2023-05-25T10:53:27;6.30;;;1.40;;
24585;SDS011;12743;52.262;6.172;2023-05-25T10:56:01;9.02;;;1.92;;
24585;SDS011;12743;52.262;6.172;2023-05-25T10:58:29;6.40;;;1.30;;
24585;SDS011;12743;52.262;6.172;2023-05-25T11:01:08;6.82;;;1.38;;
24585;SDS011;12743;52.262;6.172;2023-05-25T11:06:13;10.40;;;1.70;;
24585;SDS011;12743;52.262;6.172;2023-05-25T11:08:54;10.05;;;1.92;;
24585;SDS011;12743;52.262;6.172;2023-05-25T11:19:48;7.47;;;1.93;;
24585;SDS011;12743;52.262;6.172;2023-05-25T11:22:20;8.32;;;1.77;;
24585;SDS011;12743;52.262;6.172;2023-05-25T11:25:34;12.48;;;2.00;;
24585;SDS011;12743;52.262;6.172;2023-05-25T11:28:07;11.05;;;2.05;;
24585;SDS011;12743;52.262;6.172;2023-05-25T11:30:38;12.57;;;2.30;;
24585;SDS011;12743;52.262;6.172;2023-05-25T11:33:06;9.53;;;2.20;;
24585;SDS011;12743;52.262;6.172;2023-05-25T11:35:34;9.98;;;2.15;;
24585;SDS011;12743;52.262;6.172;2023-05-25T11:38:05;14.52;;;2.13;;
24585;SDS011;12743;52.262;6.172;2023-05-25T11:40:32;14.93;;;2.20;;
24585;SDS011;12743;52.262;6.172;2023-05-25T11:42:59;9.88;;;1.85;;
24585;SDS011;12743;52.262;6.172;2023-05-25T11:45:31;8.77;;;2.00;;
24585;SDS011;12743;52.262;6.172;2023-05-25T11:48:03;9.32;;;2.53;;
24585;SDS011;12743;52.262;6.172;2023-05-25T11:50:31;9.30;;;1.85;;
24585;SDS011;12743;52.262;6.172;2023-05-25T11:52:58;9.27;;;2.30;;
24585;SDS011;12743;52.262;6.172;2023-05-25T11:55:25;9.23;;;2.10;;
24585;SDS011;12743;52.262;6.172;2023-05-25T11:57:55;9.03;;;2.40;;
24585;SDS011;12743;52.262;6.172;2023-05-25T12:00:23;11.00;;;2.00;;
24585;SDS011;12743;52.262;6.172;2023-05-25T12:02:51;10.10;;;2.63;;
24585;SDS011;12743;52.262;6.172;2023-05-25T12:05:18;8.88;;;2.15;;
24585;SDS011;12743;52.262;6.172;2023-05-25T12:07:44;9.45;;;1.92;;
24585;SDS011;12743;52.262;6.172;2023-05-25T12:10:13;20.40;;;2.67;;
24585;SDS011;12743;52.262;6.172;2023-05-25T12:12:50;13.10;;;2.47;;
24585;SDS011;12743;52.262;6.172;2023-05-25T12:15:21;14.02;;;2.70;;
24585;SDS011;12743;52.262;6.172;2023-05-25T12:17:49;13.20;;;2.88;;
24585;SDS011;12743;52.262;6.172;2023-05-25T12:20:16;11.48;;;2.47;;
24585;SDS011;12743;52.262;6.172;2023-05-25T12:22:44;12.67;;;2.70;;
24585;SDS011;12743;52.262;6.172;2023-05-25T12:25:12;15.73;;;2.65;;
24585;SDS011;12743;52.262;6.172;2023-05-25T12:27:41;13.95;;;3.00;;
24585;SDS011;12743;52.262;6.172;2023-05-25T12:30:08;11.55;;;2.80;;
24585;SDS011;12743;52.262;6.172;2023-05-25T12:32:58;12.20;;;2.50;;
24585;SDS011;12743;52.262;6.172;2023-05-25T12:35:30;15.53;;;2.97;;
24585;SDS011;12743;52.262;6.172;2023-05-25T12:38:15;12.43;;;3.05;;
24585;SDS011;12743;52.262;6.172;2023-05-25T12:40:43;16.40;;;2.78;;
24585;SDS011;12743;52.262;6.172;2023-05-25T12:43:10;17.98;;;3.17;;
24585;SDS011;12743;52.262;6.172;2023-05-25T12:45:39;17.70;;;3.25;;
24585;SDS011;12743;52.262;6.172;2023-05-25T12:48:07;16.60;;;2.73;;
24585;SDS011;12743;52.262;6.172;2023-05-25T12:50:34;15.02;;;2.85;;
24585;SDS011;12743;52.262;6.172;2023-05-25T12:53:02;17.10;;;2.85;;
24585;SDS011;12743;52.262;6.172;2023-05-25T12:55:30;10.98;;;2.22;;
24585;SDS011;12743;52.262;6.172;2023-05-25T12:58:02;15.13;;;2.65;;
24585;SDS011;12743;52.262;6.172;2023-05-25T13:00:37;17.47;;;2.53;;
24585;SDS011;12743;52.262;6.172;2023-05-25T13:03:05;16.08;;;2.40;;
24585;SDS011;12743;52.262;6.172;2023-05-25T13:05:35;11.90;;;2.47;;
24585;SDS011;12743;52.262;6.172;2023-05-25T13:08:03;18.58;;;3.53;;
24585;SDS011;12743;52.262;6.172;2023-05-25T13:10:31;13.35;;;2.95;;
24585;SDS011;12743;52.262;6.172;2023-05-25T13:12:59;17.20;;;3.40;;
24585;SDS011;12743;52.262;6.172;2023-05-25T13:15:26;13.30;;;2.63;;
24585;SDS011;12743;52.262;6.172;2023-05-25T13:17:54;13.35;;;2.83;;
24585;SDS011;12743;52.262;6.172;2023-05-25T13:20:24;13.85;;;2.90;;
24585;SDS011;12743;52.262;6.172;2023-05-25T13:22:52;11.15;;;2.75;;
24585;SDS011;12743;52.262;6.172;2023-05-25T13:25:20;15.47;;;2.90;;
24585;SDS011;12743;52.262;6.172;2023-05-25T13:27:48;16.45;;;2.78;;
24585;SDS011;12743;52.262;6.172;2023-05-25T13:30:17;13.90;;;2.92;;
24585;SDS011;12743;52.262;6.172;2023-05-25T13:32:47;14.63;;;2.80;;
24585;SDS011;12743;52.262;6.172;2023-05-25T13:35:17;11.63;;;2.80;;
24585;SDS011;12743;52.262;6.172;2023-05-25T13:37:49;14.10;;;2.27;;
24585;SDS011;12743;52.262;6.172;2023-05-25T13:40:16;13.30;;;3.05;;
24585;SDS011;12743;52.262;6.172;2023-05-25T13:42:43;12.27;;;3.45;;
24585;SDS011;12743;52.262;6.172;2023-05-25T13:45:10;18.75;;;3.42;;
24585;SDS011;12743;52.262;6.172;2023-05-25T13:47:36;18.20;;;3.53;;
24585;SDS011;12743;52.262;6.172;2023-05-25T13:50:04;15.73;;;3.03;;
24585;SDS011;12743;52.262;6.172;2023-05-25T13:52:31;15.63;;;3.10;;
24585;SDS011;12743;52.262;6.172;2023-05-25T13:54:58;13.30;;;3.20;;
24585;SDS011;12743;52.262;6.172;2023-05-25T13:57:24;11.77;;;2.47;;
24585;SDS011;12743;52.262;6.172;2023-05-25T13:59:51;12.48;;;2.65;;
24585;SDS011;12743;52.262;6.172;2023-05-25T14:02:18;13.90;;;2.57;;
24585;SDS011;12743;52.262;6.172;2023-05-25T14:04:44;15.32;;;3.25;;
24585;SDS011;12743;52.262;6.172;2023-05-25T14:07:11;12.88;;;3.33;;
24585;SDS011;12743;52.262;6.172;2023-05-25T14:09:38;13.43;;;3.20;;
24585;SDS011;12743;52.262;6.172;2023-05-25T14:12:05;13.18;;;2.60;;
24585;SDS011;12743;52.262;6.172;2023-05-25T14:14:32;13.50;;;3.03;;
24585;SDS011;12743;52.262;6.172;2023-05-25T14:16:58;11.93;;;2.30;;
24585;SDS011;12743;52.262;6.172;2023-05-25T14:19:26;11.60;;;2.70;;
24585;SDS011;12743;52.262;6.172;2023-05-25T14:21:53;11.38;;;2.60;;
24585;SDS011;12743;52.262;6.172;2023-05-25T14:24:23;10.80;;;3.25;;
24585;SDS011;12743;52.262;6.172;2023-05-25T14:26:49;13.20;;;3.17;;
24585;SDS011;12743;52.262;6.172;2023-05-25T14:29:16;11.68;;;3.20;;
24585;SDS011;12743;52.262;6.172;2023-05-25T14:31:42;14.18;;;2.72;;
24585;SDS011;12743;52.262;6.172;2023-05-25T14:34:09;13.05;;;3.47;;
24585;SDS011;12743;52.262;6.172;2023-05-25T14:36:36;13.23;;;3.20;;
24585;SDS011;12743;52.262;6.172;2023-05-25T14:39:03;10.10;;;3.10;;
24585;SDS011;12743;52.262;6.172;2023-05-25T14:41:29;15.43;;;2.88;;
24585;SDS011;12743;52.262;6.172;2023-05-25T14:43:56;13.63;;;3.33;;
24585;SDS011;12743;52.262;6.172;2023-05-25T14:46:22;13.93;;;3.08;;
24585;SDS011;12743;52.262;6.172;2023-05-25T14:48:49;16.73;;;2.80;;
24585;SDS011;12743;52.262;6.172;2023-05-25T14:51:16;12.87;;;3.87;;
24585;SDS011;12743;52.262;6.172;2023-05-25T14:53:42;13.98;;;3.40;;
24585;SDS011;12743;52.262;6.172;2023-05-25T14:56:10;12.00;;;3.72;;
24585;SDS011;12743;52.262;6.172;2023-05-25T14:58:36;15.57;;;3.08;;
24585;SDS011;12743;52.262;6.172;2023-05-25T15:01:03;15.30;;;3.33;;
24585;SDS011;12743;52.262;6.172;2023-05-25T15:03:30;14.30;;;4.80;;
24585;SDS011;12743;52.262;6.172;2023-05-25T15:05:57;14.05;;;3.13;;
24585;SDS011;12743;52.262;6.172;2023-05-25T15:08:24;12.93;;;2.97;;